createdAt,value
2023-03-05T00:00:13.874Z,1.90
2023-03-05T00:02:42.008Z,1.60
2023-03-05T00:05:10.010Z,1.40
2023-03-05T00:07:37.465Z,1.60
2023-03-05T00:10:05.355Z,1.60
2023-03-05T00:12:32.897Z,1.60
2023-03-05T00:15:00.329Z,1.70
2023-03-05T00:17:27.661Z,1.40
2023-03-05T00:19:54.909Z,1.40
2023-03-05T00:22:22.374Z,1.30
2023-03-05T00:24:51.951Z,1.30
2023-03-05T00:27:19.462Z,1.30
2023-03-05T00:29:46.894Z,1.30
2023-03-05T00:32:14.361Z,1.10
2023-03-05T00:34:41.872Z,1.20
2023-03-05T00:37:09.184Z,1.10
2023-03-05T00:39:36.683Z,1.30
2023-03-05T00:42:03.962Z,1.20
2023-03-05T00:44:31.426Z,1.20
2023-03-05T00:46:58.827Z,1.20
2023-03-05T00:49:26.315Z,1.20
2023-03-05T00:51:53.917Z,1.00
2023-03-05T00:54:24.270Z,1.10
2023-03-05T00:56:51.495Z,1.10
2023-03-05T00:59:19.059Z,1.10
2023-03-05T01:01:46.471Z,1.10
2023-03-05T01:04:13.816Z,1.10
2023-03-05T01:06:44.953Z,1.20
2023-03-05T01:09:12.512Z,1.20
2023-03-05T01:11:40.403Z,1.20
2023-03-05T01:14:07.969Z,1.20
2023-03-05T01:16:35.531Z,1.30
2023-03-05T01:19:02.771Z,1.40
2023-03-05T01:21:30.038Z,1.40
2023-03-05T01:23:57.467Z,1.20
2023-03-05T01:26:24.861Z,1.30
2023-03-05T01:28:52.240Z,1.10
2023-03-05T01:31:19.669Z,1.20
2023-03-05T01:33:47.019Z,1.10
2023-03-05T01:36:17.084Z,1.10
2023-03-05T01:38:45.438Z,1.10
2023-03-05T01:41:13.442Z,1.20
2023-03-05T01:43:41.296Z,1.40
2023-03-05T01:46:30.741Z,1.40
2023-03-05T01:49:18.486Z,1.30
2023-03-05T01:51:50.074Z,1.30
2023-03-05T01:54:18.002Z,1.40
2023-03-05T01:56:46.586Z,1.50
2023-03-05T01:59:14.236Z,1.40
2023-03-05T02:01:43.712Z,1.40
2023-03-05T02:04:12.559Z,1.40
2023-03-05T02:06:40.034Z,1.40
2023-03-05T02:09:07.609Z,1.40
2023-03-05T02:11:35.308Z,1.40
2023-03-05T02:14:03.710Z,1.30
2023-03-05T02:16:36.303Z,1.30
2023-03-05T02:19:05.316Z,1.40
2023-03-05T02:21:44.582Z,1.40
2023-03-05T02:24:13.427Z,1.50
2023-03-05T02:26:40.976Z,1.40
2023-03-05T02:29:09.125Z,1.40
2023-03-05T02:31:37.971Z,1.60
2023-03-05T02:34:05.673Z,1.50
2023-03-05T02:36:33.120Z,1.40
2023-03-05T02:39:00.846Z,1.40
2023-03-05T02:41:28.124Z,1.40
2023-03-05T02:43:55.528Z,1.40
2023-03-05T02:46:23.280Z,1.50
2023-03-05T02:48:50.746Z,1.50
2023-03-05T02:51:18.218Z,1.60
2023-03-05T02:53:45.700Z,1.50
2023-03-05T02:56:13.352Z,1.40
2023-03-05T02:58:40.913Z,1.40
2023-03-05T03:01:10.364Z,1.40
2023-03-05T03:03:37.980Z,1.30
2023-03-05T03:06:05.526Z,1.50
2023-03-05T03:08:32.908Z,1.40
2023-03-05T03:11:10.354Z,1.40
2023-03-05T03:13:37.568Z,1.50
2023-03-05T03:16:12.471Z,1.50
2023-03-05T03:18:40.061Z,1.40
2023-03-05T03:21:07.646Z,1.40
2023-03-05T03:23:35.244Z,1.50
2023-03-05T03:26:02.615Z,1.50
2023-03-05T03:28:29.938Z,1.40
2023-03-05T03:30:57.429Z,1.40
2023-03-05T03:33:24.996Z,1.30
2023-03-05T03:35:52.599Z,1.30
2023-03-05T03:38:20.121Z,1.20
2023-03-05T03:40:47.625Z,1.50
2023-03-05T03:43:15.036Z,1.30
2023-03-05T03:45:43.444Z,1.40
2023-03-05T03:48:11.016Z,1.30
2023-03-05T03:50:41.999Z,1.50
2023-03-05T03:53:09.677Z,1.50
2023-03-05T03:55:37.243Z,1.40
2023-03-05T03:58:04.469Z,1.50
2023-03-05T04:00:31.780Z,1.50
2023-03-05T04:02:59.264Z,1.30
2023-03-05T04:05:26.623Z,1.20
2023-03-05T04:07:54.267Z,1.40
2023-03-05T04:10:21.492Z,1.50
2023-03-05T04:12:48.845Z,1.30
2023-03-05T04:15:16.265Z,1.20
2023-03-05T04:17:43.564Z,1.20
2023-03-05T04:20:11.726Z,1.20
2023-03-05T04:22:39.140Z,1.20
2023-03-05T04:25:08.345Z,1.20
2023-03-05T04:27:37.873Z,1.10
2023-03-05T04:30:05.935Z,1.20
2023-03-05T04:32:33.470Z,1.00
2023-03-05T04:35:00.934Z,1.30
2023-03-05T04:37:28.459Z,1.30
2023-03-05T04:39:56.071Z,1.20
2023-03-05T04:42:23.507Z,1.20
2023-03-05T04:44:51.105Z,1.10
2023-03-05T04:47:18.876Z,1.20
2023-03-05T04:49:46.394Z,1.20
2023-03-05T04:52:14.492Z,1.10
2023-03-05T04:54:42.055Z,1.20
2023-03-05T04:57:09.559Z,1.20
2023-03-05T04:59:38.159Z,1.30
2023-03-05T05:02:05.543Z,1.40
2023-03-05T05:04:32.963Z,1.20
2023-03-05T05:07:00.299Z,1.10
2023-03-05T05:09:27.829Z,1.10
2023-03-05T05:11:55.288Z,1.20
2023-03-05T05:14:22.736Z,1.10
2023-03-05T05:16:50.223Z,1.10
2023-03-05T05:19:17.675Z,1.10
2023-03-05T05:21:45.201Z,1.20
2023-03-05T05:24:12.471Z,1.10
2023-03-05T05:26:39.808Z,1.20
2023-03-05T05:29:07.239Z,1.10
2023-03-05T05:31:34.677Z,1.20
2023-03-05T05:34:02.170Z,1.10
2023-03-05T05:36:29.689Z,1.20
2023-03-05T05:38:57.262Z,1.30
2023-03-05T05:41:24.655Z,1.30
2023-03-05T05:43:53.200Z,1.20
2023-03-05T05:46:20.881Z,1.40
2023-03-05T05:48:48.238Z,1.40
2023-03-05T05:51:17.743Z,1.30
2023-03-05T05:53:45.263Z,1.30
2023-03-05T05:56:13.526Z,1.40
2023-03-05T05:58:41.328Z,1.40
2023-03-05T06:01:20.218Z,1.40
2023-03-05T06:03:47.583Z,1.20
2023-03-05T06:06:17.027Z,1.30
2023-03-05T06:08:44.572Z,1.30
2023-03-05T06:11:11.753Z,1.30
2023-03-05T06:13:39.193Z,1.20
2023-03-05T06:16:09.057Z,1.20
2023-03-05T06:18:36.476Z,1.30
2023-03-05T06:21:09.147Z,1.30
2023-03-05T06:23:36.538Z,1.30
2023-03-05T06:26:04.964Z,1.30
2023-03-05T06:28:32.652Z,1.40
2023-03-05T06:31:04.477Z,1.30
2023-03-05T06:33:31.865Z,1.30
2023-03-05T06:35:59.316Z,1.30
2023-03-05T06:38:26.572Z,1.40
2023-03-05T06:40:53.913Z,1.40
2023-03-05T06:43:21.485Z,1.30
2023-03-05T06:45:48.742Z,1.40
2023-03-05T06:48:16.054Z,1.50
2023-03-05T06:50:43.412Z,1.50
2023-03-05T06:53:10.933Z,1.40
2023-03-05T06:55:40.048Z,1.30
2023-03-05T06:58:08.152Z,1.30
2023-03-05T07:00:35.493Z,1.40
2023-03-05T07:03:02.850Z,1.30
2023-03-05T07:05:30.044Z,1.30
2023-03-05T07:07:57.421Z,1.40
2023-03-05T07:10:24.771Z,1.40
2023-03-05T07:12:52.233Z,1.40
2023-03-05T07:15:19.385Z,1.40
2023-03-05T07:17:46.824Z,1.50
2023-03-05T07:20:14.501Z,1.40
2023-03-05T07:22:42.015Z,1.40
2023-03-05T07:25:09.809Z,1.50
2023-03-05T07:27:38.227Z,1.50
2023-03-05T07:30:06.426Z,1.50
2023-03-05T07:32:35.791Z,1.50
2023-03-05T07:35:03.148Z,1.40
2023-03-05T07:37:30.334Z,1.60
2023-03-05T07:39:57.653Z,1.50
2023-03-05T07:42:25.155Z,1.60
2023-03-05T07:44:52.511Z,1.60
2023-03-05T07:47:19.899Z,1.60
2023-03-05T07:49:47.076Z,1.60
2023-03-05T07:52:14.262Z,1.70
2023-03-05T07:54:41.744Z,1.60
2023-03-05T07:57:09.271Z,1.60
2023-03-05T07:59:36.431Z,1.60
2023-03-05T08:02:03.564Z,1.50
2023-03-05T08:04:32.323Z,1.50
2023-03-05T08:07:00.764Z,1.40
2023-03-05T08:09:28.488Z,1.50
2023-03-05T08:11:56.020Z,1.50
2023-03-05T08:14:23.698Z,1.40
2023-03-05T08:16:52.394Z,1.70
2023-03-05T08:19:20.546Z,1.70
2023-03-05T08:21:47.751Z,1.70
2023-03-05T08:24:15.326Z,1.90
2023-03-05T08:26:42.838Z,2.00
2023-03-05T08:29:10.442Z,2.10
2023-03-05T08:31:37.879Z,2.00
2023-03-05T08:34:05.803Z,1.90
2023-03-05T08:36:33.045Z,2.20
2023-03-05T08:39:00.764Z,2.20
2023-03-05T08:41:28.149Z,2.30
2023-03-05T08:43:55.661Z,2.60
2023-03-05T08:46:23.079Z,2.40
2023-03-05T08:48:50.696Z,2.30
2023-03-05T08:51:19.685Z,2.20
2023-03-05T08:53:47.281Z,2.40
2023-03-05T08:56:14.956Z,2.50
2023-03-05T08:58:42.247Z,2.50
2023-03-05T09:01:09.783Z,2.70
2023-03-05T09:03:37.015Z,2.90
2023-03-05T09:06:06.908Z,2.80
2023-03-05T09:08:34.543Z,2.80
2023-03-05T09:11:09.154Z,3.00
2023-03-05T09:13:36.658Z,3.00
2023-03-05T09:16:06.540Z,3.10
2023-03-05T09:18:36.945Z,3.20
2023-03-05T09:21:08.324Z,3.10
2023-03-05T09:23:35.966Z,3.50
2023-03-05T09:26:06.259Z,3.40
2023-03-05T09:28:33.563Z,3.50
2023-03-05T09:31:05.234Z,3.70
2023-03-05T09:33:33.138Z,3.60
2023-03-05T09:36:01.210Z,3.50
2023-03-05T09:38:29.018Z,3.60
2023-03-05T09:41:08.320Z,3.50
2023-03-05T09:44:00.175Z,3.60
2023-03-05T09:46:52.127Z,3.40
2023-03-05T09:49:22.773Z,3.60
2023-03-05T09:51:52.466Z,3.60
2023-03-05T09:54:22.016Z,3.80
2023-03-05T09:56:57.228Z,3.80
2023-03-05T09:59:47.884Z,3.60
2023-03-05T10:02:21.300Z,3.40
2023-03-05T10:05:26.676Z,3.70
2023-03-05T10:08:04.973Z,3.60
2023-03-05T10:10:43.758Z,3.80
2023-03-05T10:13:33.953Z,3.80
2023-03-05T10:16:39.809Z,3.60
2023-03-05T10:19:30.882Z,3.80
2023-03-05T10:22:20.335Z,4.10
2023-03-05T10:25:12.566Z,4.20
2023-03-05T10:27:54.396Z,4.40
2023-03-05T10:31:03.623Z,4.40
2023-03-05T10:33:50.170Z,4.20
2023-03-05T10:36:46.166Z,4.20
2023-03-05T10:39:24.161Z,4.20
2023-03-05T10:42:36.489Z,4.30
2023-03-05T10:45:29.769Z,4.10
2023-03-05T10:48:27.316Z,4.50
2023-03-05T10:51:00.408Z,4.40
2023-03-05T10:53:29.179Z,4.50
2023-03-05T10:55:57.004Z,4.50
2023-03-05T10:58:25.137Z,4.50
2023-03-05T11:01:06.468Z,4.50
2023-03-05T11:03:54.272Z,4.30
2023-03-05T11:06:42.798Z,4.40
2023-03-05T11:09:29.817Z,4.40
2023-03-05T11:12:16.489Z,4.30
2023-03-05T11:15:02.316Z,4.30
2023-03-05T11:17:49.878Z,4.40
2023-03-05T11:20:31.037Z,4.30
2023-03-05T11:23:18.710Z,4.40
2023-03-05T11:25:56.469Z,4.40
2023-03-05T11:28:56.015Z,4.20
2023-03-05T11:31:25.583Z,4.20
2023-03-05T11:34:08.722Z,4.30
2023-03-05T11:36:40.539Z,4.40
2023-03-05T11:39:08.070Z,4.50
2023-03-05T11:41:44.498Z,4.10
2023-03-05T11:44:24.033Z,4.30
2023-03-05T11:47:00.424Z,4.50
2023-03-05T11:49:29.069Z,4.80
2023-03-05T11:52:15.236Z,4.50
2023-03-05T11:55:05.536Z,4.60
2023-03-05T11:57:54.323Z,4.50
2023-03-05T12:00:25.208Z,4.60
2023-03-05T12:02:56.091Z,4.70
2023-03-05T12:05:23.590Z,4.60
2023-03-05T12:07:52.689Z,4.70
2023-03-05T12:10:24.395Z,4.70
2023-03-05T12:12:57.787Z,4.80
2023-03-05T12:15:41.162Z,4.60
2023-03-05T12:18:23.473Z,4.70
2023-03-05T12:21:06.259Z,4.70
2023-03-05T12:23:51.367Z,4.70
2023-03-05T12:26:18.957Z,4.50
2023-03-05T12:28:46.826Z,4.30
2023-03-05T12:31:29.338Z,4.40
2023-03-05T12:33:56.886Z,4.40
2023-03-05T12:36:24.006Z,4.40
2023-03-05T12:38:55.542Z,4.20
2023-03-05T12:41:22.910Z,4.40
2023-03-05T12:44:08.517Z,4.70
2023-03-05T12:46:36.981Z,4.40
2023-03-05T12:49:28.739Z,4.40
2023-03-05T12:51:57.430Z,4.40
2023-03-05T12:54:40.198Z,4.20
2023-03-05T12:57:19.472Z,4.30
2023-03-05T13:00:11.236Z,4.20
2023-03-05T13:02:43.688Z,4.20
2023-03-05T13:05:30.441Z,4.20
2023-03-05T13:08:18.739Z,4.00
2023-03-05T13:10:57.301Z,3.90
2023-03-05T13:13:26.017Z,3.90
2023-03-05T13:15:53.383Z,4.00
2023-03-05T13:18:31.467Z,4.10
2023-03-05T13:21:06.962Z,4.10
2023-03-05T13:23:34.899Z,4.00
2023-03-05T13:26:03.153Z,4.10
2023-03-05T13:28:31.204Z,4.10
2023-03-05T13:31:03.456Z,4.10
2023-03-05T13:33:32.916Z,4.10
2023-03-05T13:36:00.452Z,4.10
2023-03-05T13:38:39.527Z,4.00
2023-03-05T13:41:08.396Z,4.00
2023-03-05T13:43:42.308Z,4.10
2023-03-05T13:46:09.552Z,4.10
2023-03-05T13:48:37.333Z,4.00
2023-03-05T13:51:09.487Z,3.90
2023-03-05T13:53:36.895Z,4.10
2023-03-05T13:56:06.607Z,4.00
2023-03-05T13:58:53.462Z,4.00
2023-03-05T14:01:26.872Z,3.80
2023-03-05T14:03:57.158Z,4.00
2023-03-05T14:06:25.719Z,3.80
2023-03-05T14:08:53.856Z,3.90
2023-03-05T14:11:21.425Z,3.80
2023-03-05T14:13:48.935Z,3.80
2023-03-05T14:16:28.233Z,3.80
2023-03-05T14:19:03.385Z,3.80
2023-03-05T14:21:45.284Z,3.80
2023-03-05T14:24:14.918Z,3.90
2023-03-05T14:26:49.314Z,3.80
2023-03-05T14:29:17.927Z,3.80
2023-03-05T14:31:51.192Z,3.70
2023-03-05T14:34:25.033Z,3.70
2023-03-05T14:36:53.533Z,3.70
2023-03-05T14:39:50.879Z,3.70
2023-03-05T14:42:39.372Z,3.80
2023-03-05T14:45:17.606Z,3.90
2023-03-05T14:47:45.139Z,3.80
2023-03-05T14:50:20.173Z,3.70
2023-03-05T14:52:48.140Z,3.70
2023-03-05T14:55:20.735Z,3.70
2023-03-05T14:57:48.937Z,3.70
2023-03-05T15:00:21.265Z,3.70
2023-03-05T15:02:48.715Z,3.60
2023-03-05T15:05:16.981Z,3.60
2023-03-05T15:07:44.520Z,3.70
2023-03-05T15:10:16.432Z,3.70
2023-03-05T15:12:44.603Z,3.70
2023-03-05T15:15:16.493Z,3.70
2023-03-05T15:17:52.075Z,3.60
2023-03-05T15:20:27.918Z,3.60
2023-03-05T15:22:55.441Z,3.70
2023-03-05T15:25:24.394Z,3.60
2023-03-05T15:27:52.331Z,3.70
2023-03-05T15:30:45.760Z,3.60
2023-03-05T15:33:15.098Z,3.50
2023-03-05T15:35:42.340Z,3.50
2023-03-05T15:38:09.924Z,3.40
2023-03-05T15:40:37.293Z,3.50
2023-03-05T15:43:04.856Z,3.60
2023-03-05T15:45:32.368Z,3.40
2023-03-05T15:47:59.934Z,3.40
2023-03-05T15:50:27.436Z,3.50
2023-03-05T15:52:54.882Z,3.60
2023-03-05T15:55:22.424Z,3.40
2023-03-05T15:57:51.184Z,3.50
2023-03-05T16:00:22.090Z,3.50
2023-03-05T16:02:51.047Z,3.50
2023-03-05T16:05:19.073Z,3.40
2023-03-05T16:07:46.519Z,3.40
2023-03-05T16:10:17.792Z,3.30
2023-03-05T16:12:45.335Z,3.30
2023-03-05T16:15:14.662Z,3.40
2023-03-05T16:17:43.556Z,3.50
2023-03-05T16:20:12.201Z,3.50
2023-03-05T16:22:39.603Z,3.50
2023-03-05T16:25:07.425Z,3.40
2023-03-05T16:27:35.050Z,3.30
2023-03-05T16:30:04.352Z,3.30
2023-03-05T16:32:31.922Z,3.40
2023-03-05T16:34:59.299Z,3.40
2023-03-05T16:37:26.725Z,3.30
2023-03-05T16:39:53.911Z,3.40
2023-03-05T16:42:21.439Z,3.30
2023-03-05T16:44:50.174Z,3.20
2023-03-05T16:47:17.620Z,3.30
2023-03-05T16:49:45.081Z,3.20
2023-03-05T16:52:18.620Z,3.20
2023-03-05T16:54:46.295Z,3.30
2023-03-05T16:57:13.471Z,3.10
2023-03-05T16:59:40.968Z,3.00
2023-03-05T17:02:08.443Z,3.10
2023-03-05T17:04:35.694Z,3.20
2023-03-05T17:07:04.480Z,3.30
2023-03-05T17:09:32.023Z,3.30
2023-03-05T17:11:59.742Z,3.30
2023-03-05T17:14:27.433Z,3.30
2023-03-05T17:16:54.950Z,3.30
2023-03-05T17:19:22.305Z,3.10
2023-03-05T17:21:51.430Z,3.20
2023-03-05T17:24:20.829Z,3.10
2023-03-05T17:26:50.568Z,3.10
2023-03-05T17:29:19.152Z,3.10
2023-03-05T17:31:47.025Z,3.20
2023-03-05T17:34:15.706Z,3.10
2023-03-05T17:36:45.605Z,3.30
2023-03-05T17:39:13.534Z,3.20
2023-03-05T17:41:41.247Z,3.10
2023-03-05T17:44:10.095Z,3.10
2023-03-05T17:46:37.440Z,3.20
2023-03-05T17:49:04.691Z,3.20
2023-03-05T17:51:32.132Z,3.20
2023-03-05T17:53:59.590Z,3.30
2023-03-05T17:56:27.107Z,3.30
2023-03-05T17:58:54.912Z,3.20
2023-03-05T18:01:26.993Z,3.20
2023-03-05T18:03:54.520Z,3.30
2023-03-05T18:06:22.162Z,3.20
2023-03-05T18:08:49.464Z,3.20
2023-03-05T18:11:17.188Z,3.20
2023-03-05T18:13:44.366Z,3.10
2023-03-05T18:16:14.577Z,2.90
2023-03-05T18:18:42.148Z,3.00
2023-03-05T18:21:09.387Z,3.00
2023-03-05T18:23:37.591Z,3.00
2023-03-05T18:26:04.886Z,2.90
2023-03-05T18:28:32.391Z,2.70
2023-03-05T18:30:59.740Z,2.80
2023-03-05T18:33:27.383Z,2.70
2023-03-05T18:35:54.719Z,2.90
2023-03-05T18:38:23.208Z,2.90
2023-03-05T18:40:51.569Z,2.70
2023-03-05T18:43:20.869Z,2.70
2023-03-05T18:45:52.103Z,2.70
2023-03-05T18:48:19.801Z,2.50
2023-03-05T18:50:49.176Z,2.50
2023-03-05T18:53:16.621Z,2.40
2023-03-05T18:55:44.047Z,2.60
2023-03-05T18:58:14.465Z,2.70
2023-03-05T19:00:42.291Z,2.70
2023-03-05T19:03:10.627Z,2.70
2023-03-05T19:05:39.067Z,2.80
2023-03-05T19:08:08.048Z,2.60
2023-03-05T19:10:35.602Z,2.40
2023-03-05T19:13:16.059Z,2.60
2023-03-05T19:15:44.622Z,2.70
2023-03-05T19:18:11.971Z,2.70
2023-03-05T19:20:39.439Z,2.60
2023-03-05T19:23:06.753Z,2.70
2023-03-05T19:25:36.467Z,2.60
2023-03-05T19:28:04.060Z,2.60
2023-03-05T19:30:31.470Z,2.70
2023-03-05T19:32:58.838Z,2.60
2023-03-05T19:35:26.098Z,2.50
2023-03-05T19:37:53.232Z,2.60
2023-03-05T19:40:20.641Z,2.70
2023-03-05T19:42:48.228Z,2.70
2023-03-05T19:45:15.529Z,2.60
2023-03-05T19:47:42.994Z,2.60
2023-03-05T19:50:11.289Z,2.50
2023-03-05T19:52:38.437Z,2.50
2023-03-05T19:55:06.494Z,2.60
2023-03-05T19:57:34.031Z,2.70
2023-03-05T20:00:01.403Z,2.70
2023-03-05T20:02:30.004Z,2.70
2023-03-05T20:04:57.907Z,2.50
2023-03-05T20:07:25.297Z,2.50
2023-03-05T20:09:55.587Z,2.40
2023-03-05T20:12:23.368Z,2.50
2023-03-05T20:14:50.849Z,2.50
2023-03-05T20:17:18.219Z,2.50
2023-03-05T20:19:45.779Z,2.60
2023-03-05T20:22:13.182Z,2.50
2023-03-05T20:24:40.561Z,2.70
2023-03-05T20:27:08.015Z,2.60
2023-03-05T20:29:35.397Z,2.50
2023-03-05T20:32:02.928Z,2.60
2023-03-05T20:34:31.527Z,2.60
2023-03-05T20:36:58.960Z,2.60
2023-03-05T20:39:26.298Z,2.50
2023-03-05T20:41:54.428Z,2.60
2023-03-05T20:44:21.939Z,2.70
2023-03-05T20:47:02.819Z,2.70
2023-03-05T20:49:30.098Z,2.80
2023-03-05T20:51:57.464Z,2.80
2023-03-05T20:54:27.643Z,2.70
2023-03-05T20:56:54.974Z,2.80
2023-03-05T20:59:23.491Z,2.60
2023-03-05T21:01:50.944Z,2.50
2023-03-05T21:04:18.326Z,2.50
2023-03-05T21:06:45.686Z,2.50
2023-03-05T21:09:13.216Z,2.40
2023-03-05T21:11:42.496Z,2.40
2023-03-05T21:14:09.941Z,2.20
2023-03-05T21:16:37.688Z,2.20
2023-03-05T21:19:05.111Z,2.30
2023-03-05T21:21:32.585Z,2.50
2023-03-05T21:24:00.020Z,2.50
2023-03-05T21:26:27.460Z,2.60
2023-03-05T21:28:54.837Z,2.60
2023-03-05T21:31:22.591Z,2.60
2023-03-05T21:33:50.193Z,2.50
2023-03-05T21:36:19.107Z,2.40
2023-03-05T21:38:47.595Z,2.50
2023-03-05T21:41:15.237Z,2.50
2023-03-05T21:43:42.904Z,2.60
2023-03-05T21:46:11.221Z,2.50
2023-03-05T21:48:38.786Z,2.40
2023-03-05T21:51:09.115Z,2.20
2023-03-05T21:53:36.699Z,2.20
2023-03-05T21:56:20.245Z,2.20
2023-03-05T21:58:47.620Z,2.30
2023-03-05T22:01:16.478Z,2.30
2023-03-05T22:03:43.890Z,2.20
2023-03-05T22:06:12.299Z,2.10
2023-03-05T22:08:39.518Z,2.30
2023-03-05T22:11:11.133Z,2.30
2023-03-05T22:13:38.602Z,2.30
2023-03-05T22:16:06.507Z,2.30
2023-03-05T22:18:34.095Z,2.40
2023-03-05T22:21:02.756Z,2.40
2023-03-05T22:23:31.675Z,2.40
2023-03-05T22:26:00.394Z,2.40
2023-03-05T22:28:27.939Z,2.50
2023-03-05T22:30:55.627Z,2.30
2023-03-05T22:33:23.311Z,2.30
2023-03-05T22:35:51.020Z,2.40
2023-03-05T22:38:18.621Z,2.40
2023-03-05T22:40:47.066Z,2.40
2023-03-05T22:43:14.700Z,2.30
2023-03-05T22:45:42.371Z,2.30
2023-03-05T22:48:10.130Z,2.30
2023-03-05T22:50:38.828Z,2.30
2023-03-05T22:53:06.201Z,2.20
2023-03-05T22:55:33.571Z,2.10
2023-03-05T22:58:00.723Z,2.20
2023-03-05T23:00:28.150Z,2.20
2023-03-05T23:02:55.755Z,2.10
2023-03-05T23:05:23.145Z,2.20
2023-03-05T23:07:50.637Z,2.20
2023-03-05T23:10:23.849Z,2.20
2023-03-05T23:12:53.404Z,2.20
2023-03-05T23:15:23.066Z,2.20
2023-03-05T23:17:50.511Z,2.20
2023-03-05T23:20:19.757Z,2.10
2023-03-05T23:22:47.703Z,2.30
2023-03-05T23:25:15.755Z,2.40
2023-03-05T23:27:43.126Z,2.40
2023-03-05T23:30:23.670Z,2.30
2023-03-05T23:33:03.594Z,2.10
2023-03-05T23:35:31.582Z,2.10
2023-03-05T23:37:59.659Z,2.10
2023-03-05T23:40:32.122Z,2.10
2023-03-05T23:42:59.719Z,2.10
2023-03-05T23:45:27.281Z,2.00
2023-03-05T23:47:54.818Z,2.00
2023-03-05T23:50:33.216Z,2.10
2023-03-05T23:53:02.224Z,2.20
2023-03-05T23:55:56.003Z,2.20
2023-03-05T23:58:23.543Z,2.00
